Time;durP1;ratioP1;P1;durP2;ratioP2;P2;SDS_P1;SDS_P2;PMS_P1;PMS_P2;Temp;Humidity;BMP_temperature;BMP_pressure;BME280_temperature;BME280_humidity;BME280_pressure;Samples;Min_cycle;Max_cycle;Signal;HPM_P1;HPM_P2
2024/04/23 00:01:00;;;;;;;17.40;12.75;;;;;;;5.55;62.25;94715.13;5448284;26;20003;-45
2024/04/23 00:03:26;;;;;;;16.98;12.95;;;;;;;5.35;62.69;94713.78;5415403;26;20000;-44
2024/04/23 00:05:51;;;;;;;12.68;10.20;;;;;;;5.59;61.63;94713.81;5447045;26;19999;-44
2024/04/23 00:08:17;;;;;;;13.75;11.48;;;;;;;5.51;62.05;94713.03;5449176;26;19995;-44
2024/04/23 00:10:42;;;;;;;16.80;12.88;;;;;;;5.64;61.66;94713.38;5441930;26;20009;-45
2024/04/23 00:13:07;;;;;;;19.42;14.05;;;;;;;5.71;61.82;94705.78;5433081;26;20014;-46
2024/04/23 00:15:33;;;;;;;18.83;13.52;;;;;;;5.85;61.54;94694.84;5448588;26;20007;-45
2024/04/23 00:17:58;;;;;;;16.60;12.60;;;;;;;5.57;62.14;94691.75;5443379;26;20011;-48
2024/04/23 00:20:24;;;;;;;13.85;11.07;;;;;;;5.52;62.11;94696.56;5438748;26;20017;-47
2024/04/23 00:22:49;;;;;;;10.57;8.50;;;;;;;5.65;60.77;94687.41;5450076;26;20030;-48
2024/04/23 00:25:14;;;;;;;9.52;8.30;;;;;;;5.67;60.68;94682.06;5449559;26;20013;-47
2024/04/23 00:27:40;;;;;;;9.70;8.05;;;;;;;5.72;60.41;94685.00;5417829;26;20074;-48
2024/04/23 00:30:06;;;;;;;9.35;8.35;;;;;;;5.83;60.08;94683.88;5448079;26;20014;-48
2024/04/23 00:32:31;;;;;;;9.82;7.82;;;;;;;5.42;60.30;94688.97;5441094;26;20011;-49
2024/04/23 00:34:56;;;;;;;10.43;8.48;;;;;;;5.66;60.15;94683.06;5439916;26;20003;-45
2024/04/23 00:37:22;;;;;;;8.73;7.18;;;;;;;5.87;59.55;94675.63;5449123;26;20015;-46
2024/04/23 00:39:47;;;;;;;8.48;7.50;;;;;;;5.84;59.05;94680.31;5453508;26;20002;-47
2024/04/23 00:42:12;;;;;;;8.48;7.55;;;;;;;5.74;59.99;94677.09;5447224;26;20003;-47
2024/04/23 00:44:38;;;;;;;12.00;9.52;;;;;;;5.75;60.80;94683.84;5447842;26;20091;-45
2024/04/23 00:47:04;;;;;;;9.30;7.97;;;;;;;5.86;59.66;94678.38;5449199;26;20101;-44
2024/04/23 00:49:30;;;;;;;8.95;7.50;;;;;;;5.85;59.19;94669.03;5435585;26;19999;-49
2024/04/23 00:51:56;;;;;;;7.65;6.78;;;;;;;5.78;58.28;94676.59;5448629;26;20044;-45
2024/04/23 00:54:23;;;;;;;8.77;7.22;;;;;;;5.82;58.90;94671.91;5454335;26;19999;-46
2024/04/23 00:56:50;;;;;;;9.00;7.80;;;;;;;5.73;59.77;94665.97;5444515;26;20347;-45
2024/04/23 00:59:16;;;;;;;8.70;7.20;;;;;;;5.77;59.76;94669.84;5434624;26;20009;-47
2024/04/23 01:01:43;;;;;;;9.70;7.55;;;;;;;5.97;58.65;94669.53;5447355;26;20003;-48
2024/04/23 01:04:08;;;;;;;8.55;7.40;;;;;;;6.02;58.58;94664.69;5438031;26;20044;-47
2024/04/23 01:06:34;;;;;;;7.78;6.93;;;;;;;5.53;58.60;94667.25;5441347;26;19999;-48
2024/04/23 01:09:00;;;;;;;8.65;7.47;;;;;;;5.84;58.75;94668.19;5427409;26;20017;-47
2024/04/23 01:11:26;;;;;;;7.38;6.53;;;;;;;5.36;59.38;94664.63;5428122;26;20004;-49
2024/04/23 01:13:52;;;;;;;8.35;7.35;;;;;;;5.42;60.18;94658.81;5443664;26;20015;-48
2024/04/23 01:16:20;;;;;;;7.95;7.15;;;;;;;5.74;58.45;94659.03;5417084;26;20036;-47
2024/04/23 01:18:47;;;;;;;8.93;7.97;;;;;;;5.76;58.77;94675.16;5427311;26;20079;-49
2024/04/23 01:21:17;;;;;;;8.90;7.55;;;;;;;5.77;59.26;94666.44;5441241;26;20012;-46
2024/04/23 01:23:48;;;;;;;7.93;7.13;;;;;;;5.77;59.13;94659.53;5444714;26;20038;-49
2024/04/23 01:26:15;;;;;;;8.65;7.63;;;;;;;5.89;59.11;94649.66;5448289;26;20002;-48
2024/04/23 01:28:42;;;;;;;9.35;7.95;;;;;;;5.80;59.62;94655.78;5438649;26;20004;-47
2024/04/23 01:31:09;;;;;;;9.45;7.93;;;;;;;5.86;58.98;94655.97;5450607;26;20427;-47
2024/04/23 01:33:40;;;;;;;9.10;7.70;;;;;;;5.87;59.14;94661.94;5438303;26;20008;-48
2024/04/23 01:36:07;;;;;;;8.95;7.93;;;;;;;5.81;59.46;94658.22;5447488;26;20074;-47
2024/04/23 01:38:35;;;;;;;9.70;7.75;;;;;;;5.88;58.75;94659.19;5449605;26;20006;-47
2024/04/23 01:41:01;;;;;;;8.68;7.78;;;;;;;5.77;59.26;94651.78;5456319;26;20002;-51
2024/04/23 01:43:27;;;;;;;10.55;8.57;;;;;;;5.79;59.78;94644.69;5429466;26;20459;-45
2024/04/23 01:45:54;;;;;;;8.55;7.65;;;;;;;5.74;60.39;94651.28;5454177;26;20006;-48
2024/04/23 01:48:20;;;;;;;10.30;7.75;;;;;;;5.78;59.56;94648.22;5443318;26;20004;-50
2024/04/23 01:50:46;;;;;;;8.40;7.47;;;;;;;5.72;59.58;94648.88;5448771;26;20013;-50
2024/04/23 01:53:11;;;;;;;8.70;7.78;;;;;;;5.72;59.96;94640.31;5450877;26;20000;-45
2024/04/23 01:55:36;;;;;;;8.43;7.60;;;;;;;5.61;60.14;94634.50;5448396;26;20013;-48
2024/04/23 01:58:02;;;;;;;8.55;7.65;;;;;;;5.63;60.16;94640.31;5449337;26;20018;-48
2024/04/23 02:00:29;;;;;;;8.68;7.50;;;;;;;5.68;60.37;94638.06;5453869;26;20063;-45
2024/04/23 02:02:56;;;;;;;9.15;7.32;;;;;;;5.66;60.17;94639.19;5446834;26;20000;-48
2024/04/23 02:05:24;;;;;;;9.05;8.15;;;;;;;5.70;60.54;94634.53;5445578;26;20016;-47
2024/04/23 02:07:50;;;;;;;12.45;9.10;;;;;;;5.73;60.34;94623.84;5453916;26;20003;-48
2024/04/23 02:10:16;;;;;;;11.30;8.90;;;;;;;5.71;61.11;94625.78;5453916;26;20017;-47
2024/04/23 02:12:41;;;;;;;10.27;8.25;;;;;;;5.83;59.89;94620.16;5439295;26;20003;-45
2024/04/23 02:15:07;;;;;;;11.75;9.38;;;;;;;5.68;60.54;94624.34;5423486;26;20014;-46
2024/04/23 02:17:33;;;;;;;13.15;10.05;;;;;;;5.71;60.89;94633.53;5452904;26;20383;-45
2024/04/23 02:19:59;;;;;;;11.18;9.48;;;;;;;5.87;60.30;94621.44;5444737;26;20011;-48
2024/04/23 02:22:24;;;;;;;12.00;9.60;;;;;;;5.60;61.23;94619.22;5419238;26;19998;-44
2024/04/23 02:24:49;;;;;;;12.02;9.90;;;;;;;5.60;61.65;94625.16;5443193;26;20442;-49
2024/04/23 02:27:15;;;;;;;13.75;11.05;;;;;;;5.63;61.42;94618.88;5448122;26;20092;-47
2024/04/23 02:29:40;;;;;;;14.00;10.80;;;;;;;5.53;62.04;94618.22;5442945;26;20009;-49
2024/04/23 02:32:06;;;;;;;12.60;10.60;;;;;;;5.43;62.39;94611.47;5453009;26;20003;-45
2024/04/23 02:34:31;;;;;;;15.88;12.13;;;;;;;5.62;61.84;94607.75;5453330;26;20090;-48
2024/04/23 02:36:56;;;;;;;15.73;11.30;;;;;;;5.77;61.12;94607.06;5471844;26;20038;-46
2024/04/23 02:39:22;;;;;;;14.98;11.02;;;;;;;5.91;60.83;94603.06;5423575;26;20002;-48
2024/04/23 02:41:47;;;;;;;12.00;9.68;;;;;;;5.64;61.49;94605.00;5455374;26;19999;-48
2024/04/23 02:44:13;;;;;;;12.63;10.50;;;;;;;5.63;61.24;94601.59;5472283;26;19998;-50
2024/04/23 02:46:38;;;;;;;14.98;10.93;;;;;;;5.47;61.88;94602.44;5422245;26;20034;-46
2024/04/23 02:49:03;;;;;;;13.95;10.80;;;;;;;5.52;61.88;94601.97;5450821;26;20045;-49
2024/04/23 02:51:29;;;;;;;13.75;10.90;;;;;;;5.52;62.02;94607.13;5444615;26;20026;-48
2024/04/23 02:53:54;;;;;;;11.80;10.02;;;;;;;5.48;61.90;94598.06;5443233;26;20007;-48
2024/04/23 02:56:20;;;;;;;12.82;10.70;;;;;;;5.46;61.69;94598.25;5443550;26;20104;-48
2024/04/23 02:58:45;;;;;;;14.05;10.43;;;;;;;5.46;61.95;94598.25;5439957;26;19995;-47
2024/04/23 03:01:10;;;;;;;13.35;9.48;;;;;;;5.54;61.66;94589.69;5443262;26;20084;-48
2024/04/23 03:03:36;;;;;;;11.55;9.48;;;;;;;5.85;60.03;94589.81;5442297;26;19999;-48
2024/04/23 03:06:01;;;;;;;11.70;9.38;;;;;;;5.60;60.73;94586.47;5448886;26;20014;-48
2024/04/23 03:08:26;;;;;;;10.70;9.32;;;;;;;5.53;60.36;94592.44;5448436;26;20075;-51
2024/04/23 03:10:51;;;;;;;9.73;8.45;;;;;;;5.64;59.31;94589.53;5449681;26;20012;-50
2024/04/23 03:13:17;;;;;;;9.70;8.45;;;;;;;5.25;60.17;94588.41;5414059;26;19999;-47
2024/04/23 03:15:42;;;;;;;9.45;8.40;;;;;;;5.18;60.08;94574.53;5450790;26;19999;-45
2024/04/23 03:18:07;;;;;;;10.55;9.15;;;;;;;5.29;60.60;94584.53;5448340;26;20091;-46
2024/04/23 03:20:33;;;;;;;10.68;9.57;;;;;;;4.88;61.46;94583.69;5448171;26;20054;-45
2024/04/23 03:22:58;;;;;;;10.57;9.38;;;;;;;5.26;60.47;94582.28;5447343;26;20003;-44
2024/04/23 03:25:24;;;;;;;10.95;9.10;;;;;;;4.70;61.38;94587.19;5450363;26;20076;-44
2024/04/23 03:27:49;;;;;;;10.82;9.13;;;;;;;4.82;61.47;94584.31;5441773;26;20017;-45
2024/04/23 03:30:14;;;;;;;10.77;8.95;;;;;;;5.26;60.00;94587.44;5437129;26;20340;-44
2024/04/23 03:32:40;;;;;;;10.82;9.13;;;;;;;5.08;60.48;94585.00;5441108;26;20015;-44
2024/04/23 03:35:05;;;;;;;10.23;8.98;;;;;;;5.22;60.32;94575.03;5441121;26;20006;-45
2024/04/23 03:37:30;;;;;;;10.57;8.82;;;;;;;5.07;60.22;94578.22;5446943;26;20014;-44
2024/04/23 03:39:56;;;;;;;10.65;8.77;;;;;;;5.18;60.18;94584.84;5445556;26;20004;-44
2024/04/23 03:42:21;;;;;;;9.52;8.30;;;;;;;5.28;59.74;94584.69;5443427;26;20076;-44
2024/04/23 03:44:47;;;;;;;10.85;8.48;;;;;;;5.08;60.61;94584.19;5448459;26;20010;-45
2024/04/23 03:47:12;;;;;;;8.85;7.63;;;;;;;4.53;61.28;94577.75;5442347;26;20073;-44
2024/04/23 03:49:38;;;;;;;9.50;8.00;;;;;;;4.64;60.28;94572.31;5420365;26;20018;-45
2024/04/23 03:52:07;;;;;;;9.95;7.88;;;;;;;4.76;60.64;94577.19;5446759;26;19998;-46
2024/04/23 03:54:33;;;;;;;8.93;7.55;;;;;;;5.07;60.59;94573.06;5450170;26;20023;-48
2024/04/23 03:56:58;;;;;;;9.75;7.97;;;;;;;5.01;60.95;94562.59;5450153;26;20451;-48
2024/04/23 03:59:23;;;;;;;8.38;7.45;;;;;;;5.24;59.56;94571.31;5450226;26;19999;-48
2024/04/23 04:06:03;;;;;;;8.10;7.28;;;;;;;4.86;60.32;94575.31;5447150;26;20077;-49
2024/04/23 04:07:22;;;;;;;7.75;6.60;;;;;;;4.76;61.45;94565.13;5431853;26;19999;-48
2024/04/23 04:09:48;;;;;;;7.95;6.57;;;;;;;5.07;60.41;94569.69;5445705;26;20003;-47
2024/04/23 04:12:13;;;;;;;7.82;6.68;;;;;;;5.27;60.17;94563.28;5447490;26;19997;-45
2024/04/23 04:14:39;;;;;;;7.10;6.40;;;;;;;4.94;60.32;94565.00;5445948;26;20039;-50
2024/04/23 04:17:04;;;;;;;7.28;6.25;;;;;;;5.27;59.21;94570.19;5442121;26;19996;-47
2024/04/23 04:19:30;;;;;;;6.88;6.00;;;;;;;5.02;59.92;94569.34;5415926;26;19998;-47
2024/04/23 04:21:57;;;;;;;8.82;6.60;;;;;;;5.09;60.20;94570.34;5458861;26;19998;-47
2024/04/23 04:24:23;;;;;;;6.90;6.20;;;;;;;5.34;59.40;94562.63;5445617;26;20019;-51
2024/04/23 04:26:48;;;;;;;7.45;6.45;;;;;;;4.96;61.12;94557.91;5447391;26;19995;-47
2024/04/23 04:29:14;;;;;;;8.27;6.40;;;;;;;5.09;60.55;94562.59;5448095;26;20010;-45
2024/04/23 04:31:39;;;;;;;7.55;6.55;;;;;;;5.06;60.49;94565.50;5428203;26;20007;-47
2024/04/23 04:34:04;;;;;;;7.30;6.22;;;;;;;5.20;60.15;94564.06;5449457;26;20013;-49
2024/04/23 04:36:30;;;;;;;7.00;6.30;;;;;;;4.55;61.31;94563.00;5422050;26;20001;-47
2024/04/23 04:38:55;;;;;;;8.50;6.57;;;;;;;4.92;60.93;94559.19;5450508;26;19999;-48
2024/04/23 04:41:20;;;;;;;7.90;6.82;;;;;;;4.69;61.40;94559.78;5443524;26;19996;-46
2024/04/23 04:43:46;;;;;;;8.02;6.70;;;;;;;4.86;61.24;94554.69;5447109;26;19999;-46
2024/04/23 04:46:11;;;;;;;9.50;7.05;;;;;;;4.98;61.21;94553.41;5447582;26;19994;-47
2024/04/23 04:48:37;;;;;;;9.43;7.18;;;;;;;5.11;61.01;94558.09;5441568;26;20039;-46
2024/04/23 04:51:02;;;;;;;7.68;6.85;;;;;;;4.90;60.56;94561.13;5411692;26;20012;-45
2024/04/23 04:53:27;;;;;;;7.65;6.63;;;;;;;4.95;60.72;94561.47;5433902;26;19999;-47
2024/04/23 04:55:54;;;;;;;8.57;6.88;;;;;;;5.17;60.12;94564.38;5448989;26;19995;-46
2024/04/23 04:58:19;;;;;;;9.65;7.78;;;;;;;5.05;60.72;94556.16;5424196;26;20000;-50
2024/04/23 05:00:45;;;;;;;7.68;6.88;;;;;;;5.38;59.59;94556.97;5436133;26;19991;-49
2024/04/23 05:03:10;;;;;;;8.25;6.88;;;;;;;5.03;60.50;94555.53;5415065;26;20010;-46
2024/04/23 05:05:35;;;;;;;7.35;6.55;;;;;;;4.90;60.68;94561.94;5441119;26;20009;-47
2024/04/23 05:08:00;;;;;;;7.63;6.38;;;;;;;4.84;61.05;94561.78;5445156;26;20010;-46
2024/04/23 05:10:26;;;;;;;7.50;6.45;;;;;;;5.22;60.27;94575.03;5447109;26;20085;-47
2024/04/23 05:12:51;;;;;;;7.10;6.00;;;;;;;5.18;60.20;94560.81;5443369;26;20002;-48
2024/04/23 05:15:18;;;;;;;7.40;6.47;;;;;;;5.13;60.70;94570.81;5441876;26;20011;-47
2024/04/23 05:17:43;;;;;;;7.20;6.05;;;;;;;5.17;60.11;94564.38;5434444;26;20014;-45
2024/04/23 05:20:10;;;;;;;8.02;6.72;;;;;;;5.42;59.86;94571.16;5446319;26;20002;-45
2024/04/23 05:22:35;;;;;;;6.90;6.20;;;;;;;5.49;60.07;94561.78;5414449;26;20076;-48
2024/04/23 05:25:01;;;;;;;8.15;6.72;;;;;;;5.47;60.03;94566.31;5432353;26;20007;-46
2024/04/23 05:27:26;;;;;;;7.28;6.38;;;;;;;5.64;59.14;94558.56;5453964;26;20013;-49
2024/04/23 05:29:54;;;;;;;7.20;6.30;;;;;;;5.66;59.53;94566.94;5441168;26;20438;-50
2024/04/23 05:35:05;;;;;;;8.07;6.65;;;;;;;5.76;58.31;94566.78;5440645;26;20006;-47
2024/04/23 05:37:30;;;;;;;9.32;7.40;;;;;;;5.86;59.25;94570.81;5445758;26;19998;-48
2024/04/23 05:39:55;;;;;;;7.82;7.00;;;;;;;5.62;59.74;94570.84;5441254;26;20049;-46
2024/04/23 05:42:21;;;;;;;8.38;7.00;;;;;;;5.59;59.64;94565.97;5444219;26;20010;-46
2024/04/23 05:44:46;;;;;;;8.55;7.43;;;;;;;5.69;59.05;94571.78;5432950;26;19999;-46
2024/04/23 05:47:11;;;;;;;8.02;7.22;;;;;;;5.63;59.23;94575.00;5444891;26;20169;-45
2024/04/23 05:50:14;;;;;;;9.30;7.47;;;;;;;5.66;59.31;94572.13;5438663;26;19999;-48
2024/04/23 05:53:17;;;;;;;9.23;7.32;;;;;;;5.83;58.88;94573.69;5438564;26;20456;-48
2024/04/23 05:55:43;;;;;;;9.65;8.15;;;;;;;5.56;60.08;94571.47;5439467;26;20011;-48
2024/04/23 05:58:08;;;;;;;8.90;7.35;;;;;;;5.38;60.58;94576.81;5439194;26;20075;-50
2024/04/23 06:00:35;;;;;;;9.18;8.00;;;;;;;5.73;59.80;94583.41;5432297;26;20003;-48
2024/04/23 06:03:01;;;;;;;9.88;6.97;;;;;;;5.51;60.29;94584.06;5444929;26;20007;-49
2024/04/23 06:05:27;;;;;;;8.68;7.22;;;;;;;5.68;60.26;94575.34;5446395;26;20094;-46
2024/04/23 06:07:53;;;;;;;9.75;8.18;;;;;;;5.99;59.95;94577.25;5437453;26;20054;-45
2024/04/23 06:10:19;;;;;;;9.38;7.10;;;;;;;5.68;59.30;94580.50;5446363;26;20003;-44
2024/04/23 06:12:45;;;;;;;9.82;7.78;;;;;;;5.66;60.11;94579.84;5430086;26;19998;-47
2024/04/23 06:15:10;;;;;;;8.25;6.85;;;;;;;5.76;59.70;94580.47;5437391;26;19995;-45
2024/04/23 06:17:36;;;;;;;8.40;7.50;;;;;;;6.30;58.79;94585.06;5436547;26;20023;-45
2024/04/23 06:20:02;;;;;;;8.50;7.30;;;;;;;6.29;58.54;94578.28;5433334;26;20371;-46
2024/04/23 06:22:30;;;;;;;9.93;7.35;;;;;;;6.58;58.37;94582.84;5446667;26;19999;-45
2024/04/23 06:24:57;;;;;;;7.78;6.90;;;;;;;6.90;57.22;94578.50;5413722;26;20035;-45
2024/04/23 06:27:24;;;;;;;8.25;7.15;;;;;;;6.96;57.49;94575.22;5448420;26;19998;-45
2024/04/23 06:29:51;;;;;;;8.10;6.88;;;;;;;7.40;56.35;94587.53;5444101;26;20107;-44
2024/04/23 06:32:17;;;;;;;10.60;7.60;;;;;;;7.66;57.23;94577.81;5448890;26;19995;-44
2024/04/23 06:34:43;;;;;;;7.68;6.88;;;;;;;7.89;55.56;94581.16;5451363;26;20063;-45
2024/04/23 06:37:10;;;;;;;7.35;6.50;;;;;;;8.17;53.94;94580.56;5448744;26;19994;-45
2024/04/23 06:39:35;;;;;;;6.72;6.10;;;;;;;8.01;54.60;94586.69;5477306;26;20002;-44
2024/04/23 06:42:01;;;;;;;7.63;6.47;;;;;;;8.41;54.96;94584.66;5447137;26;20007;-45
2024/04/23 06:44:26;;;;;;;6.45;5.85;;;;;;;7.44;52.70;94588.81;5441815;26;20431;-44
2024/04/23 06:46:52;;;;;;;6.25;5.65;;;;;;;7.37;52.92;94593.06;5447112;26;19999;-45
2024/04/23 06:49:17;;;;;;;7.30;6.53;;;;;;;7.66;55.24;94591.56;5434864;26;20048;-44
2024/04/23 06:51:42;;;;;;;7.00;6.30;;;;;;;7.73;54.99;94591.66;5430579;26;19998;-45
2024/04/23 06:54:08;;;;;;;7.13;6.40;;;;;;;7.99;53.21;94591.25;5445143;26;19998;-46
2024/04/23 06:56:33;;;;;;;6.90;6.20;;;;;;;7.82;54.43;94594.00;5443561;26;20006;-45
2024/04/23 06:58:58;;;;;;;6.47;5.88;;;;;;;7.47;53.59;94592.03;5442663;26;19999;-45
2024/04/23 07:01:24;;;;;;;6.53;5.90;;;;;;;7.51;54.43;94588.13;5450757;26;20009;-45
2024/04/23 07:03:49;;;;;;;24.88;12.98;;;;;;;7.68;55.09;94589.59;5446073;26;20003;-45
2024/04/23 07:06:15;;;;;;;38.00;18.80;;;;;;;7.54;55.16;94587.75;5435542;26;20459;-45
2024/04/23 07:08:40;;;;;;;48.97;22.60;;;;;;;7.66;55.27;94581.19;5447546;26;20003;-45
2024/04/23 07:11:06;;;;;;;7.40;6.35;;;;;;;7.69;51.96;94588.63;5449322;26;20003;-47
2024/04/23 07:13:31;;;;;;;9.85;7.55;;;;;;;7.46;53.29;94583.44;5433895;26;20003;-45
2024/04/23 07:15:56;;;;;;;12.63;8.82;;;;;;;7.15;55.04;94588.69;5446378;26;19991;-45
2024/04/23 07:18:22;;;;;;;9.85;8.05;;;;;;;6.93;54.38;94591.09;5440959;26;20014;-47
2024/04/23 07:20:47;;;;;;;9.93;7.55;;;;;;;7.11;55.62;94592.59;5445772;26;20097;-46
2024/04/23 07:23:13;;;;;;;8.10;7.30;;;;;;;6.94;55.31;94591.91;5435505;26;19999;-46
2024/04/23 07:25:38;;;;;;;7.88;7.07;;;;;;;7.27;55.03;94586.50;5413651;26;20072;-47
2024/04/23 07:28:04;;;;;;;8.10;6.85;;;;;;;7.33;54.27;94591.81;5435513;26;20011;-46
2024/04/23 07:30:29;;;;;;;17.77;12.60;;;;;;;7.07;55.06;94592.16;5450432;26;20013;-49
2024/04/23 07:32:55;;;;;;;13.35;9.05;;;;;;;7.02;56.18;94584.88;5448224;26;19999;-46
2024/04/23 07:35:24;;;;;;;7.82;6.90;;;;;;;7.06;54.21;94590.53;5448649;26;19995;-47
2024/04/23 07:37:50;;;;;;;8.07;6.90;;;;;;;6.54;55.48;94591.13;5440866;26;19999;-47
2024/04/23 07:40:16;;;;;;;11.75;8.85;;;;;;;6.69;56.70;94596.41;5442461;26;20009;-47
2024/04/23 07:42:41;;;;;;;14.13;11.63;;;;;;;6.78;55.97;94592.81;5446922;26;19999;-50
2024/04/23 07:45:07;;;;;;;8.48;7.38;;;;;;;6.50;55.39;94587.25;5429612;26;19998;-50
2024/04/23 07:47:33;;;;;;;8.65;7.60;;;;;;;6.75;55.85;94598.28;5432899;26;20007;-46
2024/04/23 07:49:59;;;;;;;10.13;8.35;;;;;;;6.72;56.20;94596.03;5443749;26;20014;-48
2024/04/23 07:52:25;;;;;;;10.15;7.90;;;;;;;6.72;56.45;94593.44;5445182;26;19995;-48
2024/04/23 07:54:51;;;;;;;10.75;8.82;;;;;;;7.09;55.58;94595.34;5443787;26;19994;-48
2024/04/23 07:57:20;;;;;;;8.60;7.68;;;;;;;6.93;56.06;94595.44;5430083;26;20007;-46
2024/04/23 07:59:45;;;;;;;9.32;8.13;;;;;;;7.07;56.92;94588.75;5450218;26;20017;-50
2024/04/23 08:02:11;;;;;;;8.88;7.80;;;;;;;7.35;54.86;94600.22;5449370;26;20452;-46
2024/04/23 08:04:36;;;;;;;9.90;7.75;;;;;;;7.24;55.36;94593.66;5429207;26;20069;-45
2024/04/23 08:07:02;;;;;;;8.82;7.72;;;;;;;7.31;55.42;94603.28;5446474;26;20024;-48
2024/04/23 08:09:27;;;;;;;8.73;7.82;;;;;;;7.07;55.01;94593.94;5438112;26;19995;-48
2024/04/23 08:11:53;;;;;;;9.93;8.48;;;;;;;7.38;55.01;94599.03;5444943;26;20018;-48
2024/04/23 08:14:18;;;;;;;10.20;8.65;;;;;;;7.23;55.33;94602.41;5443168;26;20011;-51
2024/04/23 08:16:46;;;;;;;10.13;8.63;;;;;;;7.11;55.60;94598.56;5448892;26;19998;-52
2024/04/23 08:19:12;;;;;;;9.68;8.27;;;;;;;6.73;55.32;94601.03;5424064;26;20021;-45
2024/04/23 08:21:39;;;;;;;10.68;8.85;;;;;;;6.43;57.60;94600.03;5429519;26;20003;-45
2024/04/23 08:24:05;;;;;;;11.32;8.88;;;;;;;6.71;57.05;94608.16;5426739;26;19999;-47
2024/04/23 08:26:31;;;;;;;11.00;8.95;;;;;;;6.82;57.26;94610.38;5416486;26;20003;-46
2024/04/23 08:28:56;;;;;;;8.88;7.85;;;;;;;6.51;55.15;94607.78;5441809;26;20010;-45
2024/04/23 08:31:22;;;;;;;12.32;8.43;;;;;;;6.66;56.81;94605.25;5436544;26;20006;-45
2024/04/23 08:33:47;;;;;;;10.30;8.70;;;;;;;6.77;57.05;94609.25;5439675;26;20014;-47
2024/04/23 08:36:12;;;;;;;9.45;8.07;;;;;;;6.95;56.28;94616.75;5443896;26;20009;-45
2024/04/23 08:38:38;;;;;;;8.77;7.82;;;;;;;7.20;55.78;94613.06;5445439;26;19998;-44
2024/04/23 08:41:06;;;;;;;9.48;8.10;;;;;;;7.19;54.92;94606.28;5434224;26;19997;-45
2024/04/23 08:43:38;;;;;;;8.88;7.93;;;;;;;6.94;54.87;94610.78;5485022;26;19999;-44
2024/04/23 08:46:04;;;;;;;8.13;7.30;;;;;;;7.39;53.75;94609.22;5438663;26;20010;-45
2024/04/23 08:48:30;;;;;;;9.82;7.82;;;;;;;6.88;53.60;94603.72;5431074;26;20007;-45
2024/04/23 08:50:56;;;;;;;9.57;7.80;;;;;;;6.42;55.12;94606.19;5430388;26;19999;-45
2024/04/23 08:53:22;;;;;;;8.52;7.53;;;;;;;6.91;55.24;94608.56;5427558;26;20374;-44
2024/04/23 08:55:50;;;;;;;9.77;8.45;;;;;;;7.08;56.97;94609.25;5442987;26;20099;-47
2024/04/23 08:58:16;;;;;;;8.90;8.00;;;;;;;7.30;56.18;94607.66;5429138;26;20009;-47
2024/04/23 09:00:41;;;;;;;9.82;8.07;;;;;;;7.46;56.44;94611.13;5430467;26;20436;-44
2024/04/23 09:03:14;;;;;;;9.20;7.85;;;;;;;7.89;53.91;94611.44;5440846;26;20070;-46
2024/04/23 09:05:42;;;;;;;9.13;7.97;;;;;;;7.96;55.12;94607.97;5444942;26;19999;-43
2024/04/23 09:08:09;;;;;;;9.00;7.72;;;;;;;7.99;55.07;94606.78;5433414;26;20435;-43
2024/04/23 09:10:34;;;;;;;8.38;6.90;;;;;;;7.92;53.52;94611.06;5408835;26;19999;-43
2024/04/23 09:13:01;;;;;;;7.80;6.88;;;;;;;7.25;54.38;94609.97;5445168;26;19998;-44
2024/04/23 09:15:26;;;;;;;7.28;6.55;;;;;;;7.56;53.52;94606.53;5442132;26;20000;-44
2024/04/23 09:17:57;;;;;;;7.70;6.57;;;;;;;7.13;54.56;94603.59;5437674;26;20019;-44
2024/04/23 09:20:24;;;;;;;7.25;6.55;;;;;;;7.62;54.56;94609.22;5440046;26;20007;-45
2024/04/23 09:22:53;;;;;;;7.10;6.25;;;;;;;7.61;53.83;94602.41;5440695;26;19999;-46
2024/04/23 09:25:20;;;;;;;7.85;6.45;;;;;;;7.81;55.33;94607.94;5426877;26;20028;-43
2024/04/23 09:27:47;;;;;;;7.03;6.32;;;;;;;8.03;54.87;94610.63;5426051;26;20046;-44
2024/04/23 09:30:22;;;;;;;7.15;6.00;;;;;;;7.33;53.72;94607.34;5396675;26;20038;-45
2024/04/23 09:32:57;;;;;;;7.97;6.65;;;;;;;7.85;54.16;94600.63;5431052;26;20000;-44
2024/04/23 09:35:24;;;;;;;8.15;6.03;;;;;;;7.81;52.81;94594.97;5436715;26;19995;-44
2024/04/23 09:37:50;;;;;;;6.72;6.03;;;;;;;7.93;53.55;94597.16;5431432;26;20000;-44
2024/04/23 09:40:15;;;;;;;7.13;6.40;;;;;;;7.68;52.43;94597.34;5386584;26;19996;-46
2024/04/23 09:42:41;;;;;;;6.90;6.20;;;;;;;7.16;53.94;94603.22;5434584;26;20003;-44
2024/04/23 09:45:08;;;;;;;6.97;6.20;;;;;;;7.92;52.64;94600.69;5442489;26;20007;-44
2024/04/23 09:47:39;;;;;;;12.93;10.60;;;;;;;8.10;54.17;94597.78;5439487;26;20005;-44
2024/04/23 09:50:08;;;;;;;7.63;6.82;;;;;;;7.54;52.75;94593.75;5439328;26;20006;-45
2024/04/23 09:52:35;;;;;;;7.38;6.50;;;;;;;7.14;52.81;94594.84;5442409;26;20071;-44
2024/04/23 09:55:04;;;;;;;8.25;6.85;;;;;;;7.44;54.02;94604.34;5405216;26;20006;-44
2024/04/23 09:57:30;;;;;;;8.98;7.65;;;;;;;7.58;54.94;94607.16;5439894;26;20093;-43
2024/04/23 09:59:55;;;;;;;9.40;7.85;;;;;;;8.12;53.11;94601.00;5442080;26;20010;-46
2024/04/23 10:02:28;;;;;;;9.18;7.95;;;;;;;7.58;53.18;94599.41;5442125;26;20010;-44
2024/04/23 10:05:04;;;;;;;9.50;8.15;;;;;;;7.71;55.09;94598.78;5417665;26;20010;-45
2024/04/23 10:07:36;;;;;;;10.13;8.75;;;;;;;7.08;57.03;94595.53;5416628;26;20092;-44
2024/04/23 10:10:02;;;;;;;9.23;8.23;;;;;;;7.74;54.66;94588.88;5442800;26;19998;-45
2024/04/23 10:12:30;;;;;;;9.63;8.55;;;;;;;8.17;55.50;94593.53;5447170;26;20006;-44
2024/04/23 10:15:01;;;;;;;9.68;8.52;;;;;;;8.08;55.49;94594.59;5440157;26;20454;-45
2024/04/23 10:17:39;;;;;;;9.73;8.40;;;;;;;7.89;54.22;94598.47;5440383;26;20459;-44
2024/04/23 10:20:08;;;;;;;9.73;7.97;;;;;;;8.64;53.15;94596.75;5438873;26;19995;-44
2024/04/23 10:22:36;;;;;;;9.65;8.60;;;;;;;8.51;52.59;94585.25;5443664;26;20060;-45
2024/04/23 10:25:03;;;;;;;11.48;8.68;;;;;;;8.61;54.00;94598.72;5446844;26;20001;-44
2024/04/23 10:27:30;;;;;;;12.20;8.18;;;;;;;8.47;52.15;94594.34;5448167;26;19999;-47
2024/04/23 10:29:57;;;;;;;8.88;7.97;;;;;;;8.88;52.56;94593.84;5445022;26;20003;-44
2024/04/23 10:32:23;;;;;;;10.20;8.52;;;;;;;8.45;52.64;94593.72;5443237;26;20508;-44
2024/04/23 10:34:52;;;;;;;8.90;8.00;;;;;;;8.31;53.99;94587.53;5445747;26;20011;-44
2024/04/23 10:37:20;;;;;;;8.75;7.82;;;;;;;8.36;53.11;94587.00;5440016;26;20007;-44
2024/04/23 10:39:47;;;;;;;9.55;8.52;;;;;;;8.12;55.16;94591.44;5440017;26;20015;-44
2024/04/23 10:42:14;;;;;;;8.85;7.72;;;;;;;7.93;54.15;94582.41;5495970;26;20039;-46
2024/04/23 10:44:43;;;;;;;8.70;7.80;;;;;;;8.12;53.72;94588.84;5445610;26;20014;-44
2024/04/23 10:47:08;;;;;;;8.38;7.40;;;;;;;8.61;52.69;94595.31;5447559;26;20007;-45
2024/04/23 10:49:37;;;;;;;8.98;7.53;;;;;;;8.23;53.07;94591.00;5433183;26;20080;-44
2024/04/23 10:52:03;;;;;;;8.25;7.45;;;;;;;8.35;54.71;94587.97;5446118;26;19998;-44
2024/04/23 10:54:29;;;;;;;9.10;7.78;;;;;;;8.47;55.68;94591.75;5436107;26;19999;-44
2024/04/23 10:57:09;;;;;;;9.27;7.70;;;;;;;8.65;53.15;94590.59;5440504;26;20016;-48
2024/04/23 10:59:38;;;;;;;9.23;7.55;;;;;;;8.76;52.49;94588.34;5444835;26;20009;-44
2024/04/23 11:02:11;;;;;;;8.13;7.32;;;;;;;7.53;53.96;94586.16;5432660;26;20006;-44
2024/04/23 11:04:39;;;;;;;9.57;7.75;;;;;;;7.44;55.88;94583.66;5443014;26;20076;-44
2024/04/23 11:07:06;;;;;;;8.75;7.85;;;;;;;7.38;54.80;94588.69;5447738;26;20455;-44
2024/04/23 11:09:41;;;;;;;7.88;6.68;;;;;;;7.13;55.84;94585.47;5447174;26;20079;-48
2024/04/23 11:12:26;;;;;;;7.88;7.07;;;;;;;7.72;54.11;94580.50;5430141;26;20014;-44
2024/04/23 11:14:53;;;;;;;8.23;7.05;;;;;;;7.64;54.71;94585.75;5447295;26;20007;-44
2024/04/23 11:17:19;;;;;;;8.75;7.78;;;;;;;7.81;55.56;94594.97;5435904;26;20003;-45
2024/04/23 11:19:47;;;;;;;7.55;6.75;;;;;;;7.65;53.97;94584.75;5433182;26;19996;-45
2024/04/23 11:22:15;;;;;;;8.45;7.55;;;;;;;7.73;55.18;94586.47;5439303;26;19998;-44
2024/04/23 11:24:40;;;;;;;9.18;7.70;;;;;;;7.96;55.34;94594.22;5421552;26;20074;-45
2024/04/23 11:27:06;;;;;;;8.85;7.95;;;;;;;8.16;56.14;94595.28;5425042;26;20007;-44
2024/04/23 11:29:31;;;;;;;9.25;7.72;;;;;;;8.05;56.57;94594.94;5411616;26;19995;-44
2024/04/23 11:31:58;;;;;;;10.45;7.82;;;;;;;8.14;55.90;94599.84;5434056;26;20003;-45
2024/04/23 11:34:25;;;;;;;8.73;7.68;;;;;;;8.10;56.97;94590.03;5472485;26;20073;-48
2024/04/23 11:36:50;;;;;;;8.38;7.20;;;;;;;8.33;55.78;94589.94;5444015;26;20003;-44
2024/04/23 11:39:26;;;;;;;9.30;7.90;;;;;;;8.16;55.43;94603.06;5435615;26;20000;-44
2024/04/23 11:41:54;;;;;;;7.72;6.93;;;;;;;8.12;54.91;94607.00;5435274;26;19995;-45